createdAt,value
2018-02-07T00:00:45.762Z,961.57
2018-02-07T00:01:45.806Z,961.64
2018-02-07T00:02:45.848Z,961.61
2018-02-07T00:03:45.880Z,961.60
2018-02-07T00:04:45.936Z,961.64
2018-02-07T00:05:45.962Z,961.65
2018-02-07T00:06:46.001Z,961.62
2018-02-07T00:07:46.779Z,961.65
2018-02-07T00:08:46.076Z,961.65
2018-02-07T00:09:46.132Z,961.65
2018-02-07T00:10:46.170Z,961.63
2018-02-07T00:11:46.194Z,961.66
2018-02-07T00:12:46.233Z,961.63
2018-02-07T00:13:46.272Z,961.64
2018-02-07T00:14:46.312Z,961.63
2018-02-07T00:15:46.370Z,961.57
2018-02-07T00:16:46.396Z,961.63
2018-02-07T00:17:46.429Z,961.57
2018-02-07T00:18:46.475Z,961.58
2018-02-07T00:19:46.512Z,961.54
2018-02-07T00:20:46.563Z,961.55
2018-02-07T00:21:46.587Z,961.56
2018-02-07T00:22:46.628Z,961.52
2018-02-07T00:23:46.665Z,961.54
2018-02-07T00:24:46.703Z,961.53
2018-02-07T00:25:46.758Z,961.51
2018-02-07T00:26:46.797Z,961.53
2018-02-07T00:27:46.828Z,961.50
2018-02-07T00:28:46.861Z,961.49
2018-02-07T00:29:46.899Z,961.48
2018-02-07T00:30:46.938Z,961.46
2018-02-07T00:31:46.995Z,961.48
2018-02-07T00:32:47.027Z,961.43
2018-02-07T00:33:47.056Z,961.44
2018-02-07T00:34:47.100Z,961.46
2018-02-07T00:35:47.136Z,961.42
2018-02-07T00:36:47.304Z,961.42
2018-02-07T00:37:47.209Z,961.40
2018-02-07T00:38:47.253Z,961.43
2018-02-07T00:39:47.291Z,961.45
2018-02-07T00:40:47.330Z,961.42
2018-02-07T00:41:47.403Z,961.46
2018-02-07T00:42:47.410Z,961.43
2018-02-07T00:43:47.449Z,961.45
2018-02-07T00:44:47.488Z,961.41
2018-02-07T00:45:47.534Z,961.43
2018-02-07T00:46:47.583Z,961.45
2018-02-07T00:47:47.606Z,961.49
2018-02-07T00:48:47.646Z,961.45
2018-02-07T00:49:47.686Z,961.47
2018-02-07T00:50:47.725Z,961.50
2018-02-07T00:51:47.779Z,961.51
2018-02-07T00:52:47.820Z,961.50
2018-02-07T00:53:47.847Z,961.53
2018-02-07T00:54:47.886Z,961.51
2018-02-07T00:55:47.921Z,961.52
2018-02-07T00:56:47.957Z,961.57
2018-02-07T00:57:48.017Z,961.56
2018-02-07T00:58:48.038Z,961.57
2018-02-07T00:59:48.076Z,961.57
2018-02-07T01:00:48.116Z,961.59
2018-02-07T01:01:48.158Z,961.58
2018-02-07T01:02:48.218Z,961.63
2018-02-07T01:03:48.235Z,961.61
2018-02-07T01:04:48.276Z,961.63
2018-02-07T01:05:48.313Z,961.63
2018-02-07T01:06:48.353Z,961.65
2018-02-07T01:07:48.418Z,961.67
2018-02-07T01:08:48.432Z,961.68
2018-02-07T01:09:48.469Z,961.71
2018-02-07T01:10:48.510Z,961.69
2018-02-07T01:11:48.552Z,961.70
2018-02-07T01:12:48.605Z,961.68
2018-02-07T01:13:48.628Z,961.73
2018-02-07T01:14:48.673Z,961.70
2018-02-07T01:15:48.708Z,961.69
2018-02-07T01:16:48.744Z,961.68
2018-02-07T01:17:48.801Z,961.74
2018-02-07T01:18:48.825Z,961.70
2018-02-07T01:19:48.862Z,961.72
2018-02-07T01:20:48.901Z,961.72
2018-02-07T01:21:48.946Z,961.73
2018-02-07T01:22:49.298Z,961.77
2018-02-07T01:23:49.019Z,961.74
2018-02-07T01:24:49.057Z,961.75
2018-02-07T01:25:49.097Z,961.73
2018-02-07T01:26:49.138Z,961.77
2018-02-07T01:27:49.179Z,961.77
2018-02-07T01:28:49.228Z,961.74
2018-02-07T01:29:49.257Z,961.79
2018-02-07T01:30:49.311Z,961.78
2018-02-07T01:31:49.334Z,961.79
2018-02-07T01:32:49.391Z,961.78
2018-02-07T01:33:49.410Z,961.79
2018-02-07T01:34:49.450Z,961.81
2018-02-07T01:35:49.507Z,961.85
2018-02-07T01:36:49.533Z,961.78
2018-02-07T01:37:49.570Z,961.82
2018-02-07T01:38:49.608Z,961.77
2018-02-07T01:39:49.645Z,961.84
2018-02-07T01:40:49.702Z,961.83
2018-02-07T01:41:49.726Z,961.88
2018-02-07T01:42:49.772Z,961.88
2018-02-07T01:43:49.807Z,961.90
2018-02-07T01:44:49.860Z,961.89
2018-02-07T01:45:49.882Z,961.92
2018-02-07T01:46:49.924Z,961.90
2018-02-07T01:47:49.964Z,961.87
2018-02-07T01:48:50.000Z,961.88
2018-02-07T01:49:50.056Z,961.87
2018-02-07T01:50:50.079Z,961.86
2018-02-07T01:51:50.120Z,961.85
2018-02-07T01:52:50.158Z,961.86
2018-02-07T01:53:50.196Z,961.84
2018-02-07T01:54:50.251Z,961.84
2018-02-07T01:55:50.277Z,961.84
2018-02-07T01:56:50.315Z,961.82
2018-02-07T01:57:50.371Z,961.82
2018-02-07T01:58:50.393Z,961.87
2018-02-07T01:59:50.451Z,961.88
2018-02-07T02:00:50.474Z,961.92
2018-02-07T02:01:50.514Z,961.93
2018-02-07T02:02:50.552Z,961.90
2018-02-07T02:03:50.588Z,961.89
2018-02-07T02:04:50.646Z,961.90
2018-02-07T02:05:50.672Z,961.88
2018-02-07T02:06:50.709Z,961.86
2018-02-07T02:07:50.747Z,961.85
2018-02-07T02:08:50.789Z,961.84
2018-02-07T02:09:50.847Z,961.81
2018-02-07T02:10:50.864Z,961.81
2018-02-07T02:11:50.904Z,961.81
2018-02-07T02:12:50.939Z,961.83
2018-02-07T02:13:50.981Z,961.84
2018-02-07T02:14:51.042Z,961.86
2018-02-07T02:15:51.061Z,961.84
2018-02-07T02:16:51.102Z,961.88
2018-02-07T02:17:51.138Z,961.95
2018-02-07T02:18:51.182Z,961.93
2018-02-07T02:19:51.248Z,961.96
2018-02-07T02:20:51.257Z,961.93
2018-02-07T02:21:51.296Z,961.92
2018-02-07T02:22:51.338Z,961.92
2018-02-07T02:23:51.374Z,961.94
2018-02-07T02:24:51.433Z,961.91
2018-02-07T02:25:51.469Z,961.93
2018-02-07T02:26:51.494Z,961.90
2018-02-07T02:27:51.532Z,961.95
2018-02-07T02:28:51.571Z,961.94
2018-02-07T02:29:51.611Z,961.94
2018-02-07T02:30:51.668Z,961.99
2018-02-07T02:31:51.690Z,961.99
2018-02-07T02:32:51.731Z,961.99
2018-02-07T02:33:51.767Z,962.02
2018-02-07T02:34:51.811Z,962.06
2018-02-07T02:35:51.866Z,962.06
2018-02-07T02:36:51.928Z,962.04
2018-02-07T02:37:51.927Z,962.02
2018-02-07T02:38:51.965Z,962.06
2018-02-07T02:39:52.006Z,962.11
2018-02-07T02:40:52.045Z,962.10
2018-02-07T02:41:52.100Z,962.14
2018-02-07T02:42:52.125Z,962.23
2018-02-07T02:43:52.169Z,962.19
2018-02-07T02:44:52.202Z,962.24
2018-02-07T02:45:52.243Z,962.20
2018-02-07T02:46:52.305Z,962.18
2018-02-07T02:47:52.337Z,962.17
2018-02-07T02:48:52.364Z,962.14
2018-02-07T02:49:52.408Z,962.06
2018-02-07T02:50:52.443Z,962.05
2018-02-07T02:51:52.482Z,962.01
2018-02-07T02:52:52.539Z,962.05
2018-02-07T02:53:52.564Z,962.06
2018-02-07T02:54:52.601Z,962.11
2018-02-07T02:55:52.638Z,962.16
2018-02-07T02:56:52.681Z,962.21
2018-02-07T02:57:52.738Z,962.21
2018-02-07T02:58:52.757Z,962.23
2018-02-07T02:59:52.799Z,962.22
2018-02-07T03:00:52.840Z,962.19
2018-02-07T03:01:52.876Z,962.16
2018-02-07T03:02:52.941Z,962.18
2018-02-07T03:03:52.956Z,962.09
2018-02-07T03:04:52.998Z,962.14
2018-02-07T03:05:53.039Z,962.15
2018-02-07T03:06:53.075Z,962.15
2018-02-07T03:07:53.134Z,962.21
2018-02-07T03:08:53.164Z,962.23
2018-02-07T03:09:53.193Z,962.27
2018-02-07T03:10:53.234Z,962.32
2018-02-07T03:11:53.273Z,962.28
2018-02-07T03:12:53.333Z,962.30
2018-02-07T03:13:53.355Z,962.28
2018-02-07T03:14:53.394Z,962.30
2018-02-07T03:15:53.433Z,962.34
2018-02-07T03:16:53.471Z,962.29
2018-02-07T03:17:53.538Z,962.31
2018-02-07T03:18:53.553Z,962.35
2018-02-07T03:19:53.590Z,962.35
2018-02-07T03:20:53.629Z,962.35
2018-02-07T03:21:53.672Z,962.35
2018-02-07T03:22:53.730Z,962.32
2018-02-07T03:23:53.749Z,962.33
2018-02-07T03:24:53.788Z,962.37
2018-02-07T03:25:53.835Z,962.34
2018-02-07T03:26:53.867Z,962.33
2018-02-07T03:27:53.926Z,962.32
2018-02-07T03:28:53.946Z,962.36
2018-02-07T03:29:54.452Z,962.37
2018-02-07T03:30:54.027Z,962.35
2018-02-07T03:31:54.065Z,962.37
2018-02-07T03:32:54.119Z,962.37
2018-02-07T03:33:54.164Z,962.36
2018-02-07T03:34:54.186Z,962.42
2018-02-07T03:35:54.228Z,962.40
2018-02-07T03:36:54.262Z,962.41
2018-02-07T03:37:54.302Z,962.40
2018-02-07T03:38:54.359Z,962.39
2018-02-07T03:39:54.383Z,962.41
2018-02-07T03:40:54.421Z,962.41
2018-02-07T03:41:54.464Z,962.39
2018-02-07T03:42:54.501Z,962.43
2018-02-07T03:43:54.560Z,962.39
2018-02-07T03:44:54.592Z,962.42
2018-02-07T03:45:54.640Z,962.40
2018-02-07T03:46:54.663Z,962.39
2018-02-07T03:47:54.699Z,962.41
2018-02-07T03:48:54.741Z,962.41
2018-02-07T03:49:54.783Z,962.42
2018-02-07T03:50:54.849Z,962.44
2018-02-07T03:51:54.859Z,962.44
2018-02-07T03:52:54.899Z,962.45
2018-02-07T03:53:54.938Z,962.45
2018-02-07T03:54:54.977Z,962.41
2018-02-07T03:55:55.037Z,962.46
2018-02-07T03:56:55.059Z,962.49
2018-02-07T03:57:55.100Z,962.49
2018-02-07T03:58:55.137Z,962.50
2018-02-07T03:59:55.178Z,962.49
2018-02-07T04:00:55.235Z,962.44
2018-02-07T04:01:55.261Z,962.50
2018-02-07T04:02:55.299Z,962.46
2018-02-07T04:03:55.341Z,962.51
2018-02-07T04:04:55.379Z,962.51
2018-02-07T04:05:55.435Z,962.48
2018-02-07T04:06:55.475Z,962.54
2018-02-07T04:07:55.526Z,962.52
2018-02-07T04:08:55.536Z,962.53
2018-02-07T04:09:55.577Z,962.58
2018-02-07T04:10:55.632Z,962.56
2018-02-07T04:11:55.661Z,962.55
2018-02-07T04:12:55.696Z,962.59
2018-02-07T04:13:55.737Z,962.57
2018-02-07T04:14:55.779Z,962.56
2018-02-07T04:15:55.837Z,962.52
2018-02-07T04:16:55.858Z,962.49
2018-02-07T04:17:55.901Z,962.52
2018-02-07T04:18:55.938Z,962.49
2018-02-07T04:19:55.985Z,962.51
2018-02-07T04:20:56.033Z,962.50
2018-02-07T04:21:56.055Z,962.49
2018-02-07T04:22:56.096Z,962.54
2018-02-07T04:23:56.155Z,962.49
2018-02-07T04:24:56.176Z,962.54
2018-02-07T04:25:56.216Z,962.55
2018-02-07T04:26:56.261Z,962.52
2018-02-07T04:27:56.302Z,962.51
2018-02-07T04:28:56.355Z,962.51
2018-02-07T04:29:56.375Z,962.52
2018-02-07T04:30:56.416Z,962.51
2018-02-07T04:31:56.461Z,962.50
2018-02-07T04:32:56.513Z,962.53
2018-02-07T04:33:56.537Z,962.54
2018-02-07T04:34:56.575Z,962.53
2018-02-07T04:35:56.615Z,962.57
2018-02-07T04:36:56.654Z,962.58
2018-02-07T04:37:56.715Z,962.58
2018-02-07T04:38:56.750Z,962.58
2018-02-07T04:39:56.775Z,962.58
2018-02-07T04:40:56.817Z,962.57
2018-02-07T04:41:56.855Z,962.57
2018-02-07T04:42:56.897Z,962.58
2018-02-07T04:43:56.985Z,962.58
2018-02-07T04:44:56.975Z,962.56
2018-02-07T04:45:57.021Z,962.62
2018-02-07T04:46:57.748Z,962.58
2018-02-07T04:47:57.108Z,962.58
2018-02-07T04:48:57.150Z,962.58
2018-02-07T04:49:57.173Z,962.61
2018-02-07T04:50:57.213Z,962.62
2018-02-07T04:51:57.253Z,962.61
2018-02-07T04:52:57.293Z,962.66
2018-02-07T04:53:57.357Z,962.67
2018-02-07T04:54:57.373Z,962.65
2018-02-07T04:55:57.413Z,962.67
2018-02-07T04:56:57.451Z,962.66
2018-02-07T04:57:57.494Z,962.62
2018-02-07T04:58:57.548Z,962.61
2018-02-07T04:59:57.574Z,962.61
2018-02-07T05:00:57.612Z,962.61
2018-02-07T05:01:57.652Z,962.60
2018-02-07T05:02:57.696Z,962.58
2018-02-07T05:03:57.755Z,962.61
2018-02-07T05:04:57.774Z,962.60
2018-02-07T05:05:57.813Z,962.59
2018-02-07T05:06:57.854Z,962.60
2018-02-07T05:07:57.894Z,962.67
2018-02-07T05:08:57.949Z,962.66
2018-02-07T05:09:57.972Z,962.64
2018-02-07T05:10:58.015Z,962.66
2018-02-07T05:11:58.075Z,962.64
2018-02-07T05:12:58.093Z,962.65
2018-02-07T05:13:58.142Z,962.66
2018-02-07T05:14:58.173Z,962.66
2018-02-07T05:15:58.214Z,962.68
2018-02-07T05:16:58.269Z,962.66
2018-02-07T05:17:58.295Z,962.66
2018-02-07T05:18:58.369Z,962.67
2018-02-07T05:19:58.378Z,962.69
2018-02-07T05:20:58.413Z,962.71
2018-02-07T05:21:58.473Z,962.71
2018-02-07T05:22:58.491Z,962.69
2018-02-07T05:23:58.537Z,962.77
2018-02-07T05:24:58.572Z,962.75
2018-02-07T05:25:58.613Z,962.77
2018-02-07T05:26:58.669Z,962.76
2018-02-07T05:27:58.703Z,962.77
2018-02-07T05:28:58.733Z,962.81
2018-02-07T05:29:58.773Z,962.80
2018-02-07T05:30:58.814Z,962.79
2018-02-07T05:31:58.872Z,962.78
2018-02-07T05:32:58.898Z,962.78
2018-02-07T05:33:58.933Z,962.78
2018-02-07T05:34:58.975Z,962.78
2018-02-07T05:35:59.016Z,962.76
2018-02-07T05:36:59.080Z,962.79
2018-02-07T05:37:59.096Z,962.76
2018-02-07T05:38:59.135Z,962.80
2018-02-07T05:39:59.179Z,962.80
2018-02-07T05:40:59.215Z,962.82
2018-02-07T05:41:59.275Z,962.87
2018-02-07T05:42:59.306Z,962.85
2018-02-07T05:43:59.354Z,962.84
2018-02-07T05:44:59.380Z,962.83
2018-02-07T05:45:59.416Z,962.85
2018-02-07T05:46:59.459Z,962.84
2018-02-07T05:47:59.507Z,962.86
2018-02-07T05:48:59.551Z,962.85
2018-02-07T05:49:59.576Z,962.87
2018-02-07T05:50:59.615Z,962.89
2018-02-07T05:51:59.657Z,962.87
2018-02-07T05:52:59.697Z,962.92
2018-02-07T05:53:59.754Z,962.90
2018-02-07T05:54:59.780Z,962.93
2018-02-07T05:55:59.819Z,962.90
2018-02-07T05:56:59.858Z,962.94
2018-02-07T05:57:59.897Z,962.94
2018-02-07T05:58:59.955Z,962.97
2018-02-07T05:59:59.981Z,962.95
2018-02-07T06:01:00.032Z,962.98
2018-02-07T06:02:00.060Z,962.93
2018-02-07T06:03:00.103Z,962.94
2018-02-07T06:04:00.164Z,962.96
2018-02-07T06:05:00.197Z,962.95
2018-02-07T06:06:00.221Z,962.96
2018-02-07T06:07:00.266Z,962.98
2018-02-07T06:08:00.307Z,962.96
2018-02-07T06:09:00.340Z,962.94
2018-02-07T06:10:00.398Z,962.98
2018-02-07T06:11:00.424Z,962.96
2018-02-07T06:12:00.462Z,962.98
2018-02-07T06:13:00.504Z,962.96
2018-02-07T06:14:00.543Z,963.00
2018-02-07T06:15:00.600Z,962.96
2018-02-07T06:16:00.624Z,963.01
2018-02-07T06:17:00.663Z,963.00
2018-02-07T06:18:00.707Z,963.00
2018-02-07T06:19:00.745Z,963.00
2018-02-07T06:20:00.801Z,963.02
2018-02-07T06:21:00.826Z,963.03
2018-02-07T06:22:00.870Z,963.04
2018-02-07T06:23:00.906Z,963.02
2018-02-07T06:24:00.947Z,962.99
2018-02-07T06:25:01.002Z,963.02
2018-02-07T06:26:01.026Z,963.07
2018-02-07T06:27:01.066Z,963.06
2018-02-07T06:28:01.116Z,963.10
2018-02-07T06:29:01.146Z,963.05
2018-02-07T06:30:01.205Z,963.08
2018-02-07T06:31:01.250Z,963.09
2018-02-07T06:32:01.267Z,963.07
2018-02-07T06:33:01.308Z,963.07
2018-02-07T06:34:01.349Z,963.03
2018-02-07T06:35:01.390Z,963.07
2018-02-07T06:36:01.443Z,963.04
2018-02-07T06:37:01.467Z,963.09
2018-02-07T06:38:01.509Z,963.06
2018-02-07T06:39:01.551Z,963.10
2018-02-07T06:40:01.588Z,963.13
2018-02-07T06:41:01.644Z,963.14
2018-02-07T06:42:01.685Z,963.12
2018-02-07T06:43:01.709Z,963.11
2018-02-07T06:44:01.750Z,963.11
2018-02-07T06:45:01.787Z,963.11
2018-02-07T06:46:01.831Z,963.11
2018-02-07T06:47:01.889Z,963.10
2018-02-07T06:48:01.910Z,963.09
2018-02-07T06:49:01.949Z,963.11
2018-02-07T06:50:01.992Z,963.11
2018-02-07T06:51:02.048Z,963.11
2018-02-07T06:52:02.070Z,963.11
2018-02-07T06:53:02.112Z,963.16
2018-02-07T06:54:02.153Z,963.14
2018-02-07T06:55:02.189Z,963.14
2018-02-07T06:56:02.255Z,963.15
2018-02-07T06:57:02.269Z,963.10
2018-02-07T06:58:02.311Z,963.10
2018-02-07T06:59:02.350Z,963.12
2018-02-07T07:00:02.399Z,963.13
2018-02-07T07:01:02.446Z,963.14
2018-02-07T07:02:02.471Z,963.13
2018-02-07T07:03:02.548Z,963.18
2018-02-07T07:04:02.548Z,963.16
2018-02-07T07:05:02.590Z,963.15
2018-02-07T07:06:02.631Z,963.14
2018-02-07T07:07:02.670Z,963.19
2018-02-07T07:08:02.779Z,963.16
2018-02-07T07:09:02.753Z,963.15
2018-02-07T07:10:02.792Z,963.24
2018-02-07T07:11:02.830Z,963.18
2018-02-07T07:12:02.873Z,963.20
2018-02-07T07:13:03.271Z,963.19
2018-02-07T07:14:02.954Z,963.22
2018-02-07T07:15:02.999Z,963.22
2018-02-07T07:16:03.032Z,963.21
2018-02-07T07:17:03.091Z,963.22
2018-02-07T07:18:03.112Z,963.20
2018-02-07T07:19:03.155Z,963.20
2018-02-07T07:20:03.195Z,963.25
2018-02-07T07:21:03.233Z,963.18
2018-02-07T07:22:03.304Z,963.17
2018-02-07T07:23:03.312Z,963.22
2018-02-07T07:24:03.370Z,963.22
2018-02-07T07:25:03.395Z,963.23
2018-02-07T07:26:03.440Z,963.21
2018-02-07T07:27:03.477Z,963.28
2018-02-07T07:28:03.536Z,963.29
2018-02-07T07:29:03.578Z,963.31
2018-02-07T07:30:03.600Z,963.30
2018-02-07T07:31:03.635Z,963.29
2018-02-07T07:32:03.674Z,963.30
2018-02-07T07:33:03.715Z,963.30
2018-02-07T07:34:03.782Z,963.32
2018-02-07T07:35:03.798Z,963.32
2018-02-07T07:36:03.837Z,963.32
2018-02-07T07:37:03.878Z,963.29
2018-02-07T07:38:03.922Z,963.30
2018-02-07T07:39:03.977Z,963.30
2018-02-07T07:40:03.999Z,963.29
2018-02-07T07:41:04.040Z,963.29
2018-02-07T07:42:04.082Z,963.31
2018-02-07T07:43:04.123Z,963.32
2018-02-07T07:44:04.175Z,963.29
2018-02-07T07:45:04.202Z,963.34
2018-02-07T07:46:04.240Z,963.34
2018-02-07T07:47:04.283Z,963.33
2018-02-07T07:48:04.323Z,963.34
2018-02-07T07:49:04.378Z,963.35
2018-02-07T07:50:04.764Z,963.37
2018-02-07T07:51:04.442Z,963.41
2018-02-07T07:52:04.483Z,963.39
2018-02-07T07:53:04.523Z,963.38
2018-02-07T07:54:04.587Z,963.45
2018-02-07T07:55:04.607Z,963.43
2018-02-07T07:56:04.647Z,963.37
2018-02-07T07:57:04.686Z,963.39
2018-02-07T07:58:04.724Z,963.36
2018-02-07T07:59:04.787Z,963.39
2018-02-07T08:00:04.807Z,963.38
2018-02-07T08:01:04.868Z,963.40
2018-02-07T08:02:04.888Z,963.35
2018-02-07T08:03:04.930Z,963.38
2018-02-07T08:04:04.971Z,963.34
2018-02-07T08:05:05.013Z,963.39
2018-02-07T08:06:05.065Z,963.41
2018-02-07T08:07:05.089Z,963.43
2018-02-07T08:08:05.133Z,963.41
2018-02-07T08:09:05.170Z,963.41
2018-02-07T08:10:05.216Z,963.43
2018-02-07T08:11:05.272Z,963.45
2018-02-07T08:12:05.291Z,963.44
2018-02-07T08:13:05.346Z,963.49
2018-02-07T08:14:05.377Z,963.52
2018-02-07T08:15:05.411Z,963.51
2018-02-07T08:16:05.473Z,963.52
2018-02-07T08:17:05.492Z,963.54
2018-02-07T08:18:05.552Z,963.55
2018-02-07T08:19:05.571Z,963.52
2018-02-07T08:20:05.613Z,963.54
2018-02-07T08:21:06.425Z,963.51
2018-02-07T08:22:05.691Z,963.53
2018-02-07T08:23:05.770Z,963.52
2018-02-07T08:24:05.774Z,963.56
2018-02-07T08:25:05.811Z,963.54
2018-02-07T08:26:05.856Z,963.52
2018-02-07T08:27:05.894Z,963.54
2018-02-07T08:28:05.964Z,963.55
2018-02-07T08:29:05.968Z,963.55
2018-02-07T08:30:06.021Z,963.53
2018-02-07T08:31:06.057Z,963.54
2018-02-07T08:32:06.096Z,963.56
2018-02-07T08:33:06.150Z,963.59
2018-02-07T08:34:06.175Z,963.56
2018-02-07T08:35:06.226Z,963.56
2018-02-07T08:36:06.259Z,963.57
2018-02-07T08:37:06.295Z,963.55
2018-02-07T08:38:06.356Z,963.56
2018-02-07T08:39:06.384Z,963.58
2018-02-07T08:40:06.418Z,963.57
2018-02-07T08:41:06.461Z,963.57
2018-02-07T08:42:06.496Z,963.57
2018-02-07T08:43:06.556Z,963.55
2018-02-07T08:44:06.579Z,963.55
2018-02-07T08:45:06.618Z,963.57
2018-02-07T08:46:06.660Z,963.56
2018-02-07T08:47:06.701Z,963.60
2018-02-07T08:48:06.758Z,963.59
2018-02-07T08:49:06.794Z,963.60
2018-02-07T08:50:06.824Z,963.61
2018-02-07T08:51:06.861Z,963.64
2018-02-07T08:52:06.900Z,963.68
2018-02-07T08:53:06.947Z,963.67
2018-02-07T08:54:06.996Z,963.68
2018-02-07T08:55:07.021Z,963.72
2018-02-07T08:56:07.061Z,963.71
2018-02-07T08:57:07.103Z,963.74
2018-02-07T08:58:07.143Z,963.77
2018-02-07T08:59:07.206Z,963.76
2018-02-07T09:00:07.227Z,963.75
2018-02-07T09:01:07.264Z,963.74
2018-02-07T09:02:07.305Z,963.76
2018-02-07T09:03:07.352Z,963.76
2018-02-07T09:04:07.400Z,963.77
2018-02-07T09:05:07.426Z,963.79
2018-02-07T09:06:07.488Z,963.85
2018-02-07T09:07:07.506Z,963.81
2018-02-07T09:08:07.547Z,963.82
2018-02-07T09:09:07.918Z,963.84
2018-02-07T09:10:07.630Z,963.83
2018-02-07T09:11:07.689Z,963.84
2018-02-07T09:12:07.710Z,963.84
2018-02-07T09:13:07.748Z,963.86
2018-02-07T09:14:07.799Z,963.82
2018-02-07T09:15:07.834Z,963.82
2018-02-07T09:16:07.891Z,963.83
2018-02-07T09:17:07.914Z,963.83
2018-02-07T09:18:07.955Z,963.84
2018-02-07T09:19:07.993Z,963.87
2018-02-07T09:20:08.034Z,963.93
2018-02-07T09:21:08.724Z,963.90
2018-02-07T09:22:08.117Z,963.90
2018-02-07T09:23:08.156Z,963.88
2018-02-07T09:24:08.196Z,963.89
2018-02-07T09:25:08.241Z,963.93
2018-02-07T09:26:08.301Z,963.94
2018-02-07T09:27:08.345Z,963.90
2018-02-07T09:28:08.359Z,963.90
2018-02-07T09:29:08.398Z,963.98
2018-02-07T09:30:08.443Z,963.94
2018-02-07T09:31:08.481Z,963.94
2018-02-07T09:32:08.537Z,963.94
2018-02-07T09:33:08.588Z,963.92
2018-02-07T09:34:08.602Z,963.94
2018-02-07T09:35:08.644Z,963.96
2018-02-07T09:36:08.684Z,963.93
2018-02-07T09:37:08.723Z,963.91
2018-02-07T09:38:08.784Z,963.92
2018-02-07T09:39:08.807Z,963.95
2018-02-07T09:40:08.845Z,963.94
2018-02-07T09:41:08.886Z,963.97
2018-02-07T09:42:08.930Z,963.96
2018-02-07T09:43:08.986Z,963.95
2018-02-07T09:44:09.012Z,963.97
2018-02-07T09:45:09.057Z,963.97
2018-02-07T09:46:09.089Z,963.95
2018-02-07T09:47:09.130Z,963.97
2018-02-07T09:48:09.919Z,963.95
2018-02-07T09:49:09.216Z,963.95
2018-02-07T09:50:09.252Z,963.98
2018-02-07T09:51:09.294Z,963.91
2018-02-07T09:52:09.645Z,963.98
2018-02-07T09:53:09.376Z,963.98
2018-02-07T09:54:09.414Z,963.97
2018-02-07T09:55:09.454Z,963.97
2018-02-07T09:56:09.496Z,964.00
2018-02-07T09:57:09.537Z,963.98
2018-02-07T09:58:09.593Z,964.01
2018-02-07T09:59:09.619Z,964.07
2018-02-07T10:00:09.660Z,964.07
2018-02-07T10:01:09.701Z,964.07
2018-02-07T10:02:09.740Z,964.09
2018-02-07T10:03:09.800Z,964.09
2018-02-07T10:04:09.823Z,964.10
2018-02-07T10:05:09.865Z,964.11
2018-02-07T10:06:09.904Z,964.16
2018-02-07T10:07:09.945Z,964.14
2018-02-07T10:08:10.009Z,964.14
2018-02-07T10:09:10.026Z,964.16
2018-02-07T10:10:10.070Z,964.16
2018-02-07T10:11:10.108Z,964.15
2018-02-07T10:12:10.154Z,964.21
2018-02-07T10:13:10.204Z,964.19
2018-02-07T10:14:10.233Z,964.24
2018-02-07T10:15:10.291Z,964.22
2018-02-07T10:16:10.313Z,964.25
2018-02-07T10:17:10.353Z,964.25
2018-02-07T10:18:10.400Z,964.31
2018-02-07T10:19:10.444Z,964.31
2018-02-07T10:20:10.492Z,964.31
2018-02-07T10:21:10.517Z,964.35
2018-02-07T10:22:10.557Z,964.36
2018-02-07T10:23:10.601Z,964.37
2018-02-07T10:24:10.639Z,964.41
2018-02-07T10:25:10.701Z,964.40
2018-02-07T10:26:10.722Z,964.41
2018-02-07T10:27:10.766Z,964.41
2018-02-07T10:28:10.798Z,964.37
2018-02-07T10:29:10.891Z,964.41
2018-02-07T10:30:10.907Z,964.42
2018-02-07T10:31:10.928Z,964.40
2018-02-07T10:32:10.967Z,964.36
2018-02-07T10:33:11.005Z,964.40
2018-02-07T10:34:11.048Z,964.37
2018-02-07T10:35:11.105Z,964.36
2018-02-07T10:36:11.131Z,964.38
2018-02-07T10:37:11.170Z,964.38
2018-02-07T10:38:11.211Z,964.35
2018-02-07T10:39:11.251Z,964.35
2018-02-07T10:40:11.310Z,964.32
2018-02-07T10:41:11.338Z,964.33
2018-02-07T10:42:11.376Z,964.31
2018-02-07T10:43:11.418Z,964.32
2018-02-07T10:44:11.456Z,964.29
2018-02-07T10:45:11.522Z,964.30
2018-02-07T10:46:11.551Z,964.27
2018-02-07T10:47:11.585Z,964.29
2018-02-07T10:48:11.620Z,964.32
2018-02-07T10:49:11.675Z,964.28
2018-02-07T10:50:11.701Z,964.32
2018-02-07T10:51:11.763Z,964.30
2018-02-07T10:52:11.805Z,964.24
2018-02-07T10:53:11.822Z,964.30
2018-02-07T10:54:11.866Z,964.35
2018-02-07T10:55:11.907Z,964.34
2018-02-07T10:56:11.948Z,964.33
2018-02-07T10:57:12.004Z,964.39
2018-02-07T10:58:12.028Z,964.37
2018-02-07T10:59:12.077Z,964.39
2018-02-07T11:00:13.442Z,964.35
2018-02-07T11:01:12.151Z,964.36
2018-02-07T11:02:12.210Z,964.32
2018-02-07T11:03:12.249Z,964.35
2018-02-07T11:04:12.275Z,964.34
2018-02-07T11:05:12.321Z,964.34
2018-02-07T11:06:12.355Z,964.37
2018-02-07T11:07:12.396Z,964.32
2018-02-07T11:08:12.454Z,964.34
2018-02-07T11:09:12.477Z,964.36
2018-02-07T11:10:12.518Z,964.37
2018-02-07T11:11:12.563Z,964.36
2018-02-07T11:12:12.631Z,964.34
2018-02-07T11:13:12.658Z,964.36
2018-02-07T11:14:12.684Z,964.38
2018-02-07T11:15:12.725Z,964.38
2018-02-07T11:16:12.765Z,964.34
2018-02-07T11:17:12.804Z,964.38
2018-02-07T11:18:12.866Z,964.36
2018-02-07T11:19:12.888Z,964.41
2018-02-07T11:20:12.927Z,964.37
2018-02-07T11:21:12.971Z,964.37
2018-02-07T11:22:13.014Z,964.34
2018-02-07T11:23:13.081Z,964.35
2018-02-07T11:24:13.093Z,964.38
2018-02-07T11:25:13.137Z,964.37
2018-02-07T11:26:13.177Z,964.31
2018-02-07T11:27:13.217Z,964.35
2018-02-07T11:28:13.277Z,964.29
2018-02-07T11:29:13.297Z,964.29
2018-02-07T11:30:13.342Z,964.27
2018-02-07T11:31:13.385Z,964.27
2018-02-07T11:32:13.422Z,964.23
2018-02-07T11:33:13.479Z,964.26
2018-02-07T11:34:13.528Z,964.25
2018-02-07T11:35:13.542Z,964.24
2018-02-07T11:36:13.588Z,964.28
2018-02-07T11:37:13.630Z,964.24
2018-02-07T11:38:13.665Z,964.26
2018-02-07T11:39:13.726Z,964.25
2018-02-07T11:40:13.753Z,964.24
2018-02-07T11:41:13.791Z,964.23
2018-02-07T11:42:13.833Z,964.24
2018-02-07T11:43:13.876Z,964.23
2018-02-07T11:44:13.938Z,964.23
2018-02-07T11:45:13.957Z,964.26
2018-02-07T11:46:13.998Z,964.25
2018-02-07T11:47:14.040Z,964.26
2018-02-07T11:48:14.082Z,964.24
2018-02-07T11:49:14.137Z,964.20
2018-02-07T11:50:14.166Z,964.21
2018-02-07T11:51:14.217Z,964.26
2018-02-07T11:52:14.255Z,964.25
2018-02-07T11:53:14.285Z,964.25
2018-02-07T11:54:14.329Z,964.26
2018-02-07T11:55:14.389Z,964.28
2018-02-07T11:56:14.411Z,964.25
2018-02-07T11:57:14.454Z,964.24
2018-02-07T11:58:14.494Z,964.24
2018-02-07T11:59:14.538Z,964.24
2018-02-07T12:00:14.595Z,964.24
2018-02-07T12:01:14.624Z,964.24
2018-02-07T12:02:14.659Z,964.19
2018-02-07T12:03:14.702Z,964.21
2018-02-07T12:04:14.749Z,964.19
2018-02-07T12:05:14.797Z,964.26
2018-02-07T12:06:14.824Z,964.25
2018-02-07T12:07:14.864Z,964.22
2018-02-07T12:08:14.921Z,964.20
2018-02-07T12:09:14.949Z,964.21
2018-02-07T12:10:14.989Z,964.21
2018-02-07T12:11:15.032Z,964.19
2018-02-07T12:12:15.074Z,964.23
2018-02-07T12:13:15.826Z,964.21
2018-02-07T12:14:15.154Z,964.23
2018-02-07T12:15:15.198Z,964.21
2018-02-07T12:16:15.238Z,964.24
2018-02-07T12:17:15.278Z,964.19
2018-02-07T12:18:15.318Z,964.23
2018-02-07T12:19:15.388Z,964.21
2018-02-07T12:20:15.402Z,964.17
2018-02-07T12:21:15.440Z,964.21
2018-02-07T12:22:15.505Z,964.19
2018-02-07T12:23:15.524Z,964.16
2018-02-07T12:24:15.582Z,964.15
2018-02-07T12:25:15.606Z,964.11
2018-02-07T12:26:15.647Z,964.09
2018-02-07T12:27:15.687Z,964.09
2018-02-07T12:28:15.730Z,964.11
2018-02-07T12:29:15.788Z,964.09